Melbourne, FL (32901)

11:46 AM EDT on May 24, 2017 (GMT -0400)
Melbourne | | Change Station
Active Advisory: Lake Wind Advisory

Elev 0 ft 28.07 °N, 80.64 °W | Updated 13 minutes ago

Mostly Cloudy
Mostly Cloudy
86.2 °F
Feels Like 96 °F
N
5.0
Wind Variable Wind from SW
Gusts 13.7 mph

Today
High -- | Low -- °F
--% Chance of Precip.
Yesterday
High -- | Low -- °F
Precip. -- in
Pressure 29.78 in
Visibility 10.0 miles
Clouds Scattered Clouds 2700 ft
Mostly Cloudy 3700 ft
Heat Index 96 °F
Dew Point 76 °F
Humidity 70%
Rainfall 0.00 in
Snow Depth Not available.
6:28 AM 8:10 PM
Waning Crescent, 2% visible
METAR KMLB 241453Z 19016G25KT 10SM SCT027 BKN037 32/23 A2977 RMK AO2 PK WND 18029/1424 SLP082 T03170228 56009
Pressure 29.78 in
Visibility 10.0 miles
Clouds Scattered Clouds 2700 ft
Mostly Cloudy 3700 ft
Heat Index 96 °F
Dew Point 76 °F
Humidity 70%
Rainfall 0.00 in
Snow Depth Not available.
6:28 AM 8:10 PM
Waning Crescent, 2% visible
METAR KMLB 241453Z 19016G25KT 10SM SCT027 BKN037 32/23 A2977 RMK AO2 PK WND 18029/1424 SLP082 T03170228 56009

Get Your Daily Forecast Email!

Thanks for signing up!

Be on the lookout for a verification email in your inbox.

You'll start receiving severe weather alerts in your inbox..

×

10-Day Weather Forecast

Almanac

Astronomy

May. 24, 2017 Rise Set
Actual Time
Civil Twilight
Nautical Twilight
Astronomical Twilight
Moon
Length of Visible Light
Length of Day
Tomorrow will be .
, % of the Moon is Illuminated

Today's Extremes

State Highs State Lows

Community

WunderPhotos

Category 6

Welcome to Category 6. This is the collective home for Weather Underground's featured writeups by Dr. Jeff Masters (right), Bob Henson (left), Chris Burt, and other regular contributors.

Nearby

Air Quality

  Air Quality AQ Index Pollutant
Not available.

Snow Depth

Station Depth Elevation

Earthquake Activity

City Distance Mag. Time & Date
Minimum magnitude displayed is 2.5.

Coastal Water Temperatures

Place Temperature

Stations

Nearby Weather Stations

Station Location Temp. Windchill Dew Point Humidity Wind Precip. Elev Updated Type
                   

Watches & Warnings

Lake Wind Advisory
Issued: 4:18 AM EDT May. 24, 2017 – National Weather Service

... Lake Wind Advisory in effect until 8 PM EDT this evening...

The National Weather Service in Melbourne has issued a lake Wind
Advisory, which is in effect until 8 PM EDT this evening.

* Winds... southwest winds around 20 mph with frequent gusts around
30 mph.

* Impacts... strong and gusty winds will produce rough and choppy
boating conditions on area lakes.

Precautionary/preparedness actions...

A lake Wind Advisory indicates that winds will cause rough chop
on area lakes. Small boats will be especially prone to capsizing.